createdAt,value
2017-08-30T00:00:57.320Z,83.81
2017-08-30T00:01:57.370Z,84.00
2017-08-30T00:03:50.367Z,83.33
2017-08-30T00:04:50.435Z,83.33
2017-08-30T00:06:43.455Z,83.18
2017-08-30T00:07:43.502Z,82.50
2017-08-30T00:09:36.521Z,82.12
2017-08-30T00:10:36.570Z,82.21
2017-08-30T00:12:29.567Z,82.21
2017-08-30T00:13:29.636Z,82.21
2017-08-30T00:15:22.651Z,82.41
2017-08-30T00:16:22.699Z,82.50
2017-08-30T00:18:15.700Z,82.70
2017-08-30T00:19:15.767Z,82.31
2017-08-30T00:21:08.789Z,82.12
2017-08-30T00:22:08.834Z,82.31
2017-08-30T00:24:01.833Z,82.21
2017-08-30T00:25:01.900Z,82.21
2017-08-30T00:26:54.920Z,82.50
2017-08-30T00:27:54.969Z,82.60
2017-08-30T00:29:47.991Z,82.89
2017-08-30T00:30:48.038Z,82.79
2017-08-30T00:32:41.036Z,83.08
2017-08-30T00:33:41.104Z,82.41
2017-08-30T00:35:34.121Z,82.60
2017-08-30T00:36:34.170Z,82.98
2017-08-30T00:38:27.167Z,82.60
2017-08-30T00:39:27.237Z,82.50
2017-08-30T00:41:20.256Z,82.79
2017-08-30T00:42:20.307Z,82.98
2017-08-30T00:44:13.301Z,82.98
2017-08-30T00:45:13.367Z,82.79
2017-08-30T00:47:06.388Z,82.41
2017-08-30T00:48:06.436Z,82.12
2017-08-30T00:49:59.456Z,82.02
2017-08-30T00:50:59.503Z,81.96
2017-08-30T00:52:53.014Z,82.70
2017-08-30T00:53:53.078Z,82.50
2017-08-30T00:55:46.096Z,82.45
2017-08-30T00:56:46.144Z,82.70
2017-08-30T00:58:39.143Z,82.79
2017-08-30T00:59:39.209Z,82.79
2017-08-30T01:01:32.230Z,82.70
2017-08-30T01:02:32.276Z,82.98
2017-08-30T01:04:25.280Z,82.50
2017-08-30T01:05:25.344Z,82.70
2017-08-30T01:07:18.363Z,82.50
2017-08-30T01:08:18.410Z,82.60
2017-08-30T01:10:11.407Z,82.89
2017-08-30T01:11:11.476Z,82.60
2017-08-30T01:13:04.491Z,83.37
2017-08-30T01:14:04.540Z,82.50
2017-08-30T01:15:57.562Z,82.98
2017-08-30T01:16:57.611Z,82.50
2017-08-30T01:18:50.606Z,83.08
2017-08-30T01:19:50.675Z,82.98
2017-08-30T01:21:43.693Z,82.79
2017-08-30T01:22:43.740Z,82.60
2017-08-30T01:24:36.740Z,82.98
2017-08-30T01:25:36.806Z,83.08
2017-08-30T01:27:29.826Z,82.70
2017-08-30T01:28:29.875Z,83.08
2017-08-30T01:30:22.878Z,82.70
2017-08-30T01:31:22.947Z,82.50
2017-08-30T01:33:15.973Z,82.50
2017-08-30T01:34:16.014Z,82.70
2017-08-30T01:36:09.033Z,83.18
2017-08-30T01:37:09.080Z,82.89
2017-08-30T01:39:02.079Z,82.98
2017-08-30T01:40:02.147Z,82.79
2017-08-30T01:41:55.166Z,82.89
2017-08-30T01:42:55.213Z,82.79
2017-08-30T01:44:48.212Z,82.70
2017-08-30T01:45:48.279Z,82.89
2017-08-30T01:47:41.303Z,82.54
2017-08-30T01:48:41.344Z,82.35
2017-08-30T01:50:34.345Z,82.45
2017-08-30T01:51:34.413Z,82.70
2017-08-30T01:53:27.943Z,82.89
2017-08-30T01:54:30.940Z,82.79
2017-08-30T01:56:21.007Z,82.79
2017-08-30T01:57:21.055Z,82.70
2017-08-30T01:59:14.051Z,82.70
2017-08-30T02:00:14.123Z,82.70
2017-08-30T02:02:07.141Z,83.37
2017-08-30T02:03:07.186Z,83.56
2017-08-30T02:05:00.186Z,83.47
2017-08-30T02:06:00.258Z,83.28
2017-08-30T02:07:53.272Z,83.18
2017-08-30T02:08:53.319Z,83.37
2017-08-30T02:10:46.320Z,83.28
2017-08-30T02:11:46.388Z,82.98
2017-08-30T02:13:39.405Z,83.56
2017-08-30T02:14:39.453Z,83.95
2017-08-30T02:16:32.473Z,83.56
2017-08-30T02:17:32.521Z,83.37
2017-08-30T02:19:25.518Z,83.28
2017-08-30T02:20:25.589Z,83.47
2017-08-30T02:22:18.608Z,83.66
2017-08-30T02:23:18.655Z,83.18
2017-08-30T02:25:11.656Z,83.75
2017-08-30T02:26:11.722Z,83.66
2017-08-30T02:28:04.745Z,84.14
2017-08-30T02:29:04.792Z,84.23
2017-08-30T02:30:57.794Z,84.91
2017-08-30T02:31:57.862Z,84.43
2017-08-30T02:33:50.881Z,83.18
2017-08-30T02:34:50.929Z,83.28
2017-08-30T02:36:43.948Z,84.14
2017-08-30T02:37:43.994Z,83.56
2017-08-30T02:39:36.993Z,83.37
2017-08-30T02:40:37.062Z,82.89
2017-08-30T02:42:30.079Z,83.47
2017-08-30T02:43:30.126Z,83.56
2017-08-30T02:45:23.129Z,83.47
2017-08-30T02:46:23.195Z,83.37
2017-08-30T02:48:16.214Z,83.85
2017-08-30T02:49:16.262Z,84.14
2017-08-30T02:51:09.258Z,83.37
2017-08-30T02:52:09.326Z,83.95
2017-08-30T02:54:02.344Z,83.37
2017-08-30T02:55:02.391Z,83.66
2017-08-30T02:56:55.415Z,83.66
2017-08-30T02:57:55.460Z,83.66
2017-08-30T02:59:48.466Z,84.05
2017-08-30T03:00:48.534Z,83.66
2017-08-30T03:02:41.545Z,84.14
2017-08-30T03:03:41.592Z,83.95
2017-08-30T03:05:34.592Z,83.28
2017-08-30T03:06:34.660Z,83.28
2017-08-30T03:08:27.682Z,84.14
2017-08-30T03:09:27.728Z,83.75
2017-08-30T03:11:20.726Z,83.56
2017-08-30T03:12:20.793Z,84.33
2017-08-30T03:14:13.817Z,84.00
2017-08-30T03:15:13.860Z,83.85
2017-08-30T03:17:06.879Z,84.23
2017-08-30T03:18:06.925Z,85.49
2017-08-30T03:19:59.925Z,84.91
2017-08-30T03:20:59.993Z,84.72
2017-08-30T03:22:53.011Z,84.53
2017-08-30T03:23:53.060Z,84.23
2017-08-30T03:25:46.056Z,84.53
2017-08-30T03:26:46.122Z,83.75
2017-08-30T03:28:39.143Z,83.91
2017-08-30T03:29:39.190Z,84.10
2017-08-30T03:31:32.188Z,84.87
2017-08-30T03:32:32.255Z,84.58
2017-08-30T03:34:25.283Z,83.81
2017-08-30T03:35:25.326Z,84.67
2017-08-30T03:37:18.347Z,85.25
2017-08-30T03:38:18.406Z,84.77
2017-08-30T03:40:11.391Z,85.35
2017-08-30T03:41:11.459Z,85.06
2017-08-30T03:43:04.477Z,84.87
2017-08-30T03:44:04.524Z,84.77
2017-08-30T03:45:57.522Z,84.77
2017-08-30T03:46:57.589Z,84.77
2017-08-30T03:48:50.608Z,85.83
2017-08-30T03:49:50.656Z,85.83
2017-08-30T03:51:43.651Z,85.64
2017-08-30T03:52:43.719Z,85.93
2017-08-30T03:54:36.738Z,86.12
2017-08-30T03:55:36.783Z,85.83
2017-08-30T03:57:29.802Z,85.54
2017-08-30T03:58:29.849Z,86.56
2017-08-30T04:00:22.847Z,86.27
2017-08-30T04:01:22.914Z,86.56
2017-08-30T04:03:15.932Z,86.56
2017-08-30T04:04:15.976Z,86.65
2017-08-30T04:06:08.974Z,86.56
2017-08-30T04:07:09.041Z,86.27
2017-08-30T04:09:02.063Z,86.36
2017-08-30T04:10:02.106Z,86.36
2017-08-30T04:11:55.106Z,86.27
2017-08-30T04:12:55.174Z,86.27
2017-08-30T04:14:48.193Z,86.46
2017-08-30T04:15:48.239Z,86.56
2017-08-30T04:17:41.256Z,85.40
2017-08-30T04:18:41.302Z,85.69
2017-08-30T04:20:34.301Z,85.69
2017-08-30T04:21:34.367Z,86.08
2017-08-30T04:23:27.388Z,85.69
2017-08-30T04:24:27.430Z,85.69
2017-08-30T04:26:20.427Z,85.02
2017-08-30T04:27:20.495Z,85.21
2017-08-30T04:29:13.513Z,85.02
2017-08-30T04:30:13.559Z,85.21
2017-08-30T04:32:06.561Z,84.83
2017-08-30T04:33:06.627Z,85.11
2017-08-30T04:34:59.641Z,85.40
2017-08-30T04:35:59.688Z,84.83
2017-08-30T04:37:52.708Z,85.31
2017-08-30T04:38:52.754Z,84.92
2017-08-30T04:40:45.753Z,86.13
2017-08-30T04:41:45.831Z,86.08
2017-08-30T04:43:38.840Z,85.69
2017-08-30T04:44:38.883Z,85.60
2017-08-30T04:46:31.883Z,85.78
2017-08-30T04:47:31.951Z,85.11
2017-08-30T04:49:24.979Z,84.16
2017-08-30T04:50:25.016Z,84.16
2017-08-30T04:52:18.019Z,84.83
2017-08-30T04:53:18.082Z,84.83
2017-08-30T04:55:11.107Z,84.54
2017-08-30T04:56:11.154Z,85.02
2017-08-30T04:58:04.171Z,84.54
2017-08-30T04:59:04.218Z,84.73
2017-08-30T05:00:57.216Z,84.83
2017-08-30T05:01:57.281Z,84.92
2017-08-30T05:03:50.299Z,84.16
2017-08-30T05:04:50.345Z,83.96
2017-08-30T05:06:43.342Z,84.06
2017-08-30T05:07:43.410Z,83.86
2017-08-30T05:09:36.433Z,83.29
2017-08-30T05:10:36.475Z,83.33
2017-08-30T05:12:29.475Z,83.91
2017-08-30T05:13:29.541Z,83.77
2017-08-30T05:15:22.559Z,84.39
2017-08-30T05:16:22.607Z,83.81
2017-08-30T05:18:15.622Z,83.52
2017-08-30T05:19:15.668Z,82.94
2017-08-30T05:21:08.669Z,83.52
2017-08-30T05:22:08.738Z,82.46
2017-08-30T05:24:01.758Z,82.65
2017-08-30T05:25:01.808Z,82.17
2017-08-30T05:26:54.806Z,82.21
2017-08-30T05:27:54.872Z,81.63
2017-08-30T05:29:47.899Z,81.45
2017-08-30T05:30:47.945Z,81.63
2017-08-30T05:32:40.943Z,82.02
2017-08-30T05:33:41.008Z,81.16
2017-08-30T05:35:34.026Z,81.73
2017-08-30T05:36:34.073Z,82.02
2017-08-30T05:38:27.094Z,81.73
2017-08-30T05:39:27.137Z,81.35
2017-08-30T05:41:20.136Z,80.91
2017-08-30T05:42:20.204Z,80.58
2017-08-30T05:44:13.220Z,81.01
2017-08-30T05:45:13.268Z,80.33
2017-08-30T05:47:06.266Z,80.43
2017-08-30T05:48:06.333Z,79.27
2017-08-30T05:49:59.352Z,79.08
2017-08-30T05:50:59.403Z,79.31
2017-08-30T05:52:52.916Z,78.50
2017-08-30T05:53:52.975Z,77.96
2017-08-30T05:55:45.997Z,77.76
2017-08-30T05:56:46.043Z,77.96
2017-08-30T05:58:39.062Z,78.25
2017-08-30T05:59:39.108Z,78.73
2017-08-30T06:01:32.108Z,77.96
2017-08-30T06:02:32.178Z,78.63
2017-08-30T06:04:25.194Z,78.06
2017-08-30T06:05:25.246Z,77.86
2017-08-30T06:07:18.241Z,77.86
2017-08-30T06:08:18.309Z,78.06
2017-08-30T06:10:11.330Z,78.15
2017-08-30T06:11:11.375Z,78.25
2017-08-30T06:13:04.376Z,78.25
2017-08-30T06:14:04.445Z,78.63
2017-08-30T06:15:57.464Z,78.83
2017-08-30T06:16:57.510Z,79.11
2017-08-30T06:18:50.531Z,78.54
2017-08-30T06:19:50.578Z,78.83
2017-08-30T06:21:43.578Z,79.11
2017-08-30T06:22:43.645Z,78.92
2017-08-30T06:24:36.664Z,78.34
2017-08-30T06:25:36.718Z,78.63
2017-08-30T06:27:29.713Z,78.06
2017-08-30T06:28:29.781Z,78.15
2017-08-30T06:30:22.798Z,78.44
2017-08-30T06:31:22.845Z,77.86
2017-08-30T06:33:15.850Z,78.06
2017-08-30T06:34:15.919Z,77.96
2017-08-30T06:36:08.939Z,77.58
2017-08-30T06:37:08.988Z,77.33
2017-08-30T06:39:02.004Z,77.48
2017-08-30T06:40:02.052Z,77.42
2017-08-30T06:41:55.052Z,77.42
2017-08-30T06:42:55.125Z,76.84
2017-08-30T06:44:48.143Z,76.93
2017-08-30T06:45:48.197Z,76.55
2017-08-30T06:47:41.187Z,76.55
2017-08-30T06:48:41.256Z,76.55
2017-08-30T06:50:34.298Z,76.55
2017-08-30T06:51:34.327Z,76.26
2017-08-30T06:53:27.831Z,75.82
2017-08-30T06:54:27.904Z,75.92
2017-08-30T06:56:20.930Z,75.05
2017-08-30T06:57:20.969Z,75.14
2017-08-30T06:59:13.990Z,74.02
2017-08-30T07:00:14.038Z,73.83
2017-08-30T07:02:07.051Z,71.64
2017-08-30T07:03:07.108Z,70.65
2017-08-30T07:05:00.126Z,65.56
2017-08-30T07:06:00.193Z,65.24
2017-08-30T07:07:53.180Z,66.37
2017-08-30T07:08:53.248Z,66.08
2017-08-30T07:10:46.268Z,64.89
2017-08-30T07:11:46.317Z,63.40
2017-08-30T07:13:39.328Z,60.42
2017-08-30T07:14:39.408Z,61.55
2017-08-30T07:16:32.413Z,63.82
2017-08-30T07:17:32.462Z,64.95
2017-08-30T07:19:25.504Z,66.08
2017-08-30T07:20:25.538Z,66.27
2017-08-30T07:22:18.553Z,65.98
2017-08-30T07:23:18.611Z,65.53
2017-08-30T07:25:11.635Z,64.30
2017-08-30T07:26:11.684Z,64.30
2017-08-30T07:28:04.689Z,62.79
2017-08-30T07:29:04.758Z,62.62
2017-08-30T07:30:57.784Z,60.13
2017-08-30T07:31:57.830Z,60.03
2017-08-30T07:33:50.839Z,59.19
2017-08-30T07:34:50.936Z,60.20
2017-08-30T07:36:43.936Z,60.88
2017-08-30T07:37:43.987Z,60.52
2017-08-30T07:39:37.014Z,58.34
2017-08-30T07:40:37.064Z,56.24
2017-08-30T07:42:30.083Z,57.18
2017-08-30T07:43:30.141Z,58.22
2017-08-30T07:45:23.168Z,59.41
2017-08-30T07:46:23.241Z,59.09
2017-08-30T07:48:16.225Z,60.81
2017-08-30T07:49:16.298Z,61.55
2017-08-30T07:51:09.326Z,61.65
2017-08-30T07:52:09.377Z,62.40
2017-08-30T07:54:02.402Z,64.30
2017-08-30T07:55:02.473Z,64.79
2017-08-30T07:56:55.499Z,65.98
2017-08-30T07:57:55.556Z,67.33
2017-08-30T07:59:48.588Z,68.49
2017-08-30T08:00:48.630Z,69.56
2017-08-30T08:02:41.635Z,68.46
2017-08-30T08:03:41.706Z,69.33
2017-08-30T08:05:34.734Z,69.43
2017-08-30T08:06:34.779Z,69.56
2017-08-30T08:08:27.784Z,68.11
2017-08-30T08:09:27.878Z,68.21
2017-08-30T08:11:20.875Z,67.56
2017-08-30T08:12:20.937Z,62.49
2017-08-30T08:14:13.952Z,54.62
2017-08-30T08:15:14.002Z,51.56
2017-08-30T08:17:07.026Z,48.54
2017-08-30T08:18:07.075Z,49.34
2017-08-30T08:20:00.105Z,51.41
2017-08-30T08:21:00.156Z,53.77
2017-08-30T08:22:53.163Z,56.26
2017-08-30T08:23:53.238Z,56.72
2017-08-30T08:25:46.268Z,57.47
2017-08-30T08:26:46.319Z,58.05
2017-08-30T08:28:39.330Z,58.54
2017-08-30T08:29:39.400Z,59.51
2017-08-30T08:31:32.427Z,59.41
2017-08-30T08:32:32.478Z,58.25
2017-08-30T08:34:25.496Z,60.38
2017-08-30T08:35:25.560Z,60.58
2017-08-30T08:37:18.607Z,57.54
2017-08-30T08:38:18.640Z,57.93
2017-08-30T08:40:11.666Z,58.61
2017-08-30T08:41:11.719Z,59.58
2017-08-30T08:43:04.725Z,59.97
2017-08-30T08:44:04.796Z,59.09
2017-08-30T08:45:57.826Z,59.31
2017-08-30T08:46:57.875Z,58.15
2017-08-30T08:48:50.883Z,58.51
2017-08-30T08:49:50.953Z,59.19
2017-08-30T08:51:43.979Z,60.23
2017-08-30T08:52:44.032Z,60.23
2017-08-30T08:54:37.036Z,61.58
2017-08-30T08:55:37.108Z,61.49
2017-08-30T08:57:30.136Z,60.64
2017-08-30T08:58:30.185Z,58.64
2017-08-30T09:00:23.216Z,56.36
2017-08-30T09:01:23.269Z,55.25
2017-08-30T09:03:16.276Z,56.10
2017-08-30T09:04:16.346Z,56.00
2017-08-30T09:06:09.376Z,56.46
2017-08-30T09:07:09.464Z,57.14
2017-08-30T09:09:02.435Z,58.37
2017-08-30T09:10:02.521Z,57.98
2017-08-30T09:11:55.536Z,58.08
2017-08-30T09:12:55.587Z,58.44
2017-08-30T09:14:48.601Z,59.51
2017-08-30T09:15:48.672Z,59.38
2017-08-30T09:17:41.717Z,59.26
2017-08-30T09:18:41.751Z,59.55
2017-08-30T09:20:34.779Z,61.26
2017-08-30T09:21:34.827Z,62.40
2017-08-30T09:23:27.833Z,63.65
2017-08-30T09:24:27.904Z,64.43
2017-08-30T09:26:20.942Z,64.92
2017-08-30T09:27:20.981Z,65.75
2017-08-30T09:29:13.989Z,65.75
2017-08-30T09:30:14.058Z,65.95
2017-08-30T09:32:07.083Z,66.05
2017-08-30T09:33:07.134Z,65.95
2017-08-30T09:35:00.140Z,67.02
2017-08-30T09:36:00.216Z,66.50
2017-08-30T09:37:53.240Z,67.18
2017-08-30T09:38:53.283Z,68.53
2017-08-30T09:40:46.310Z,70.76
2017-08-30T09:41:46.360Z,68.73
2017-08-30T09:43:39.377Z,72.36
2017-08-30T09:44:39.445Z,72.85
2017-08-30T09:46:32.471Z,73.78
2017-08-30T09:47:32.520Z,74.46
2017-08-30T09:49:25.525Z,76.06
2017-08-30T09:50:25.596Z,77.51
2017-08-30T09:52:18.620Z,74.81
2017-08-30T09:53:18.669Z,74.13
2017-08-30T09:55:11.675Z,75.78
2017-08-30T09:56:11.746Z,75.54
2017-08-30T09:58:04.770Z,77.57
2017-08-30T09:59:04.831Z,75.74
2017-08-30T10:00:57.843Z,74.38
2017-08-30T10:01:57.894Z,75.74
2017-08-30T10:03:50.895Z,74.48
2017-08-30T10:04:50.964Z,74.10
2017-08-30T10:06:43.988Z,74.68
2017-08-30T10:07:44.056Z,75.26
2017-08-30T10:09:37.040Z,75.06
2017-08-30T10:10:37.109Z,75.06
2017-08-30T10:12:30.133Z,75.39
2017-08-30T10:13:30.184Z,76.03
2017-08-30T10:15:23.183Z,75.10
2017-08-30T10:16:23.269Z,75.48
2017-08-30T10:18:16.279Z,75.10
2017-08-30T10:19:16.336Z,75.29
2017-08-30T10:21:09.348Z,75.29
2017-08-30T10:22:09.397Z,75.97
2017-08-30T10:24:02.405Z,75.74
2017-08-30T10:25:02.474Z,75.54
2017-08-30T10:26:55.500Z,77.38
2017-08-30T10:27:55.550Z,79.75
2017-08-30T10:29:48.556Z,79.66
2017-08-30T10:30:48.626Z,79.85
2017-08-30T10:32:41.651Z,80.82
2017-08-30T10:33:41.700Z,81.74
2017-08-30T10:35:34.702Z,83.29
2017-08-30T10:36:34.772Z,83.19
2017-08-30T10:38:27.795Z,82.81
2017-08-30T10:39:27.842Z,83.58
2017-08-30T10:41:20.865Z,83.58
2017-08-30T10:42:20.915Z,83.39
2017-08-30T10:44:13.917Z,85.02
2017-08-30T10:45:13.991Z,84.25
2017-08-30T10:47:07.008Z,85.12
2017-08-30T10:48:07.056Z,84.79
2017-08-30T10:50:00.083Z,85.75
2017-08-30T10:51:00.150Z,85.37
2017-08-30T10:52:53.680Z,84.98
2017-08-30T10:53:53.733Z,85.02
2017-08-30T10:55:46.733Z,83.58
2017-08-30T10:56:46.798Z,84.20
2017-08-30T10:58:39.819Z,82.79
2017-08-30T10:59:39.874Z,80.80
2017-08-30T11:01:32.889Z,79.83
2017-08-30T11:02:32.940Z,78.77
2017-08-30T11:04:25.942Z,78.96
2017-08-30T11:05:26.019Z,79.74
2017-08-30T11:07:19.034Z,78.38
2017-08-30T11:08:19.084Z,79.74
2017-08-30T11:10:12.089Z,78.77
2017-08-30T11:11:12.158Z,79.74
2017-08-30T11:13:05.185Z,77.17
2017-08-30T11:14:05.233Z,77.69
2017-08-30T11:15:58.240Z,75.65
2017-08-30T11:16:58.313Z,77.40
2017-08-30T11:18:51.346Z,75.98
2017-08-30T11:19:51.384Z,74.92
2017-08-30T11:21:44.409Z,73.57
2017-08-30T11:22:44.459Z,73.66
2017-08-30T11:24:37.463Z,73.47
2017-08-30T11:25:37.534Z,72.50
2017-08-30T11:27:30.574Z,72.15
2017-08-30T11:28:30.608Z,72.63
2017-08-30T11:30:23.613Z,72.44
2017-08-30T11:31:23.681Z,72.63
2017-08-30T11:33:16.714Z,72.28
2017-08-30T11:34:16.754Z,71.70
2017-08-30T11:36:09.759Z,71.50
2017-08-30T11:37:09.833Z,71.41
2017-08-30T11:39:02.854Z,70.54
2017-08-30T11:40:02.906Z,70.34
2017-08-30T11:41:55.932Z,70.34
2017-08-30T11:42:55.982Z,70.09
2017-08-30T11:44:48.987Z,70.18
2017-08-30T11:45:49.057Z,69.60
2017-08-30T11:47:42.079Z,70.61
2017-08-30T11:48:42.130Z,69.64
2017-08-30T11:50:35.135Z,69.67
2017-08-30T11:51:35.205Z,68.66
2017-08-30T11:53:28.747Z,70.45
2017-08-30T11:54:28.792Z,68.21
2017-08-30T11:56:21.793Z,68.41
2017-08-30T11:57:21.862Z,69.76
2017-08-30T11:59:14.888Z,66.66
2017-08-30T12:00:14.938Z,67.54
2017-08-30T12:02:07.965Z,66.40
2017-08-30T12:03:08.019Z,67.14
2017-08-30T12:05:01.030Z,66.69
2017-08-30T12:06:01.091Z,67.83
2017-08-30T12:07:54.116Z,67.08
2017-08-30T12:08:54.169Z,66.69
2017-08-30T12:10:47.172Z,66.02
2017-08-30T12:11:47.254Z,66.99
2017-08-30T12:13:40.274Z,65.95
2017-08-30T12:14:40.323Z,65.63
2017-08-30T12:16:33.326Z,65.08
2017-08-30T12:17:33.399Z,64.98
2017-08-30T12:19:26.425Z,66.02
2017-08-30T12:20:26.475Z,65.63
2017-08-30T12:22:19.502Z,66.76
2017-08-30T12:23:19.551Z,65.89
2017-08-30T12:25:12.555Z,66.66
2017-08-30T12:26:12.627Z,66.37
2017-08-30T12:28:05.677Z,65.59
2017-08-30T12:29:05.707Z,66.17
2017-08-30T12:30:58.715Z,65.89
2017-08-30T12:31:58.789Z,66.37
2017-08-30T12:33:51.813Z,66.63
2017-08-30T12:34:51.863Z,66.72
2017-08-30T12:36:44.905Z,67.11
2017-08-30T12:37:44.978Z,66.82
2017-08-30T12:39:38.003Z,67.11
2017-08-30T12:40:38.050Z,68.08
2017-08-30T12:42:31.078Z,68.18
2017-08-30T12:43:31.130Z,67.11
2017-08-30T12:45:24.134Z,67.21
2017-08-30T12:46:24.203Z,66.53
2017-08-30T12:48:17.231Z,66.82
2017-08-30T12:49:17.280Z,66.92
2017-08-30T12:51:10.285Z,65.95
2017-08-30T12:52:10.357Z,65.37
2017-08-30T12:54:03.384Z,65.98
2017-08-30T12:55:03.433Z,65.01
2017-08-30T12:56:56.437Z,64.95
2017-08-30T12:57:56.507Z,65.01
2017-08-30T12:59:49.534Z,63.17
2017-08-30T13:00:49.584Z,63.98
2017-08-30T13:02:42.613Z,65.14
2017-08-30T13:03:42.660Z,63.39
2017-08-30T13:05:36.202Z,63.88
2017-08-30T13:06:36.236Z,63.39
2017-08-30T13:08:29.261Z,63.88
2017-08-30T13:09:29.312Z,62.23
2017-08-30T13:11:22.315Z,61.58
2017-08-30T13:12:22.385Z,62.77
2017-08-30T13:14:15.418Z,60.54
2017-08-30T13:15:15.470Z,59.95
2017-08-30T13:17:08.472Z,61.61
2017-08-30T13:18:08.548Z,61.05
2017-08-30T13:20:01.571Z,61.25
2017-08-30T13:21:01.621Z,60.67
2017-08-30T13:22:54.666Z,59.50
2017-08-30T13:23:54.705Z,61.25
2017-08-30T13:25:47.705Z,58.53
2017-08-30T13:26:47.774Z,60.08
2017-08-30T13:28:40.807Z,61.22
2017-08-30T13:29:40.862Z,60.54
2017-08-30T13:31:33.866Z,59.79
2017-08-30T13:32:33.937Z,58.33
2017-08-30T13:34:26.964Z,60.47
2017-08-30T13:35:27.015Z,59.86
2017-08-30T13:37:20.063Z,59.59
2017-08-30T13:38:20.133Z,58.53
2017-08-30T13:40:13.158Z,57.46
2017-08-30T13:41:13.209Z,57.14
2017-08-30T13:43:06.235Z,56.49
2017-08-30T13:44:06.286Z,56.87
2017-08-30T13:45:59.295Z,59.31
2017-08-30T13:46:59.363Z,58.53
2017-08-30T13:48:52.391Z,57.36
2017-08-30T13:49:52.443Z,58.23
2017-08-30T13:51:45.448Z,56.68
2017-08-30T13:52:45.519Z,58.14
2017-08-30T13:54:38.547Z,57.07
2017-08-30T13:55:38.603Z,59.50
2017-08-30T13:57:31.605Z,58.53
2017-08-30T13:58:31.680Z,58.23
2017-08-30T14:00:24.702Z,59.08
2017-08-30T14:01:24.753Z,59.86
2017-08-30T14:03:17.807Z,58.28
2017-08-30T14:04:17.859Z,58.47
2017-08-30T14:06:10.866Z,60.02
2017-08-30T14:07:10.943Z,60.58
2017-08-30T14:09:03.982Z,60.19
2017-08-30T14:10:04.017Z,60.28
2017-08-30T14:11:57.038Z,61.65
2017-08-30T14:12:57.108Z,61.07
2017-08-30T14:14:50.152Z,60.58
2017-08-30T14:15:50.187Z,61.55
2017-08-30T14:17:43.228Z,62.39
2017-08-30T14:18:43.263Z,62.39
2017-08-30T14:20:36.301Z,62.49
2017-08-30T14:21:36.338Z,62.13
2017-08-30T14:23:29.364Z,63.29
2017-08-30T14:24:29.441Z,63.39
2017-08-30T14:26:22.419Z,62.91
2017-08-30T14:27:22.491Z,63.98
2017-08-30T14:29:15.522Z,63.39
2017-08-30T14:30:15.634Z,63.59
2017-08-30T14:32:08.579Z,62.81
2017-08-30T14:33:08.684Z,63.98
2017-08-30T14:35:01.672Z,63.98
2017-08-30T14:36:01.973Z,63.56
2017-08-30T14:37:55.064Z,64.56
2017-08-30T14:38:55.025Z,63.98
2017-08-30T14:40:48.119Z,63.78
2017-08-30T14:41:48.157Z,63.95
2017-08-30T14:43:40.948Z,63.98
2017-08-30T14:44:41.012Z,63.65
2017-08-30T14:46:34.032Z,63.75
2017-08-30T14:47:34.042Z,64.14
2017-08-30T14:49:27.068Z,62.98
2017-08-30T14:50:27.145Z,62.10
2017-08-30T14:52:32.815Z,62.42
2017-08-30T14:53:32.826Z,64.17
2017-08-30T14:55:25.853Z,63.36
2017-08-30T14:56:26.003Z,63.46
2017-08-30T14:58:18.927Z,64.17
2017-08-30T14:59:19.011Z,63.26
2017-08-30T15:01:11.983Z,63.78
2017-08-30T15:02:12.054Z,62.62
2017-08-30T15:04:05.591Z,63.46
2017-08-30T15:05:05.674Z,63.75
2017-08-30T15:06:58.658Z,63.20
2017-08-30T15:07:58.734Z,62.23
2017-08-30T15:09:52.289Z,62.52
2017-08-30T15:10:52.314Z,63.49
2017-08-30T15:12:45.330Z,64.07
2017-08-30T15:13:45.391Z,63.29
2017-08-30T15:15:38.422Z,63.39
2017-08-30T15:16:38.469Z,64.65
2017-08-30T15:18:31.525Z,63.29
2017-08-30T15:19:31.548Z,63.20
2017-08-30T15:21:24.561Z,63.98
2017-08-30T15:22:24.632Z,63.39
2017-08-30T15:24:17.655Z,63.59
2017-08-30T15:25:17.708Z,64.43
2017-08-30T15:27:10.734Z,63.78
2017-08-30T15:28:10.785Z,64.85
2017-08-30T15:30:03.826Z,63.95
2017-08-30T15:31:03.861Z,65.20
2017-08-30T15:32:56.872Z,65.69
2017-08-30T15:33:56.978Z,64.62
2017-08-30T15:35:49.965Z,65.59
2017-08-30T15:36:50.017Z,64.72
2017-08-30T15:38:43.063Z,65.79
2017-08-30T15:39:43.093Z,65.47
2017-08-30T15:41:36.117Z,66.53
2017-08-30T15:42:36.202Z,66.24
2017-08-30T15:44:29.197Z,66.92
2017-08-30T15:45:29.253Z,66.63
2017-08-30T15:47:22.256Z,66.99
2017-08-30T15:48:22.328Z,66.99
2017-08-30T15:50:15.368Z,66.30
2017-08-30T15:51:15.414Z,66.89
2017-08-30T15:53:08.416Z,67.27
2017-08-30T15:54:08.488Z,67.76
2017-08-30T15:56:01.513Z,67.95
2017-08-30T15:57:01.564Z,67.37
2017-08-30T15:58:54.636Z,67.27
2017-08-30T15:59:54.643Z,68.05
2017-08-30T16:01:47.653Z,67.95
2017-08-30T16:02:47.723Z,67.47
2017-08-30T16:04:40.750Z,68.34
2017-08-30T16:05:40.802Z,68.82
2017-08-30T16:07:33.810Z,68.63
2017-08-30T16:08:33.881Z,68.34
2017-08-30T16:10:26.915Z,68.63
2017-08-30T16:11:26.960Z,68.24
2017-08-30T16:13:19.972Z,68.73
2017-08-30T16:14:20.046Z,68.54
2017-08-30T16:16:13.066Z,68.50
2017-08-30T16:17:13.117Z,69.41
2017-08-30T16:19:06.149Z,68.44
2017-08-30T16:20:06.199Z,68.82
2017-08-30T16:21:59.203Z,68.82
2017-08-30T16:22:59.274Z,68.24
2017-08-30T16:24:52.297Z,68.24
2017-08-30T16:25:52.349Z,68.15
2017-08-30T16:27:45.360Z,68.54
2017-08-30T16:28:45.426Z,68.24
2017-08-30T16:30:38.455Z,68.05
2017-08-30T16:31:38.500Z,67.08
2017-08-30T16:33:31.507Z,67.08
2017-08-30T16:34:31.585Z,67.95
2017-08-30T16:36:24.617Z,67.37
2017-08-30T16:37:24.652Z,67.08
2017-08-30T16:39:17.677Z,68.24
2017-08-30T16:40:17.724Z,68.34
2017-08-30T16:42:10.731Z,68.24
2017-08-30T16:43:10.802Z,68.44
2017-08-30T16:45:03.831Z,67.66
2017-08-30T16:46:03.885Z,68.34
2017-08-30T16:47:56.910Z,67.95
2017-08-30T16:48:56.972Z,67.85
2017-08-30T16:50:50.005Z,67.85
2017-08-30T16:51:50.052Z,67.21
2017-08-30T16:53:43.079Z,67.31
2017-08-30T16:54:43.136Z,67.08
2017-08-30T16:56:36.178Z,67.18
2017-08-30T16:57:36.224Z,68.24
2017-08-30T16:59:29.263Z,68.44
2017-08-30T17:00:29.307Z,68.34
2017-08-30T17:02:22.316Z,68.34
2017-08-30T17:03:22.388Z,68.34
2017-08-30T17:05:15.417Z,69.50
2017-08-30T17:06:15.465Z,69.67
2017-08-30T17:08:08.490Z,70.05
2017-08-30T17:09:08.546Z,70.25
2017-08-30T17:11:01.570Z,70.73
2017-08-30T17:12:01.620Z,70.73
2017-08-30T17:13:54.624Z,70.11
2017-08-30T17:14:54.694Z,69.47
2017-08-30T17:16:47.726Z,70.44
2017-08-30T17:17:47.771Z,69.47
2017-08-30T17:19:40.798Z,71.12
2017-08-30T17:20:40.848Z,70.70
2017-08-30T17:22:33.852Z,70.70
2017-08-30T17:23:33.921Z,70.70
2017-08-30T17:25:26.950Z,70.31
2017-08-30T17:26:26.999Z,71.28
2017-08-30T17:28:20.008Z,71.86
2017-08-30T17:29:20.075Z,70.79
2017-08-30T17:31:13.109Z,72.34
2017-08-30T17:32:13.154Z,72.34
2017-08-30T17:34:06.159Z,71.86
2017-08-30T17:35:06.232Z,72.24
2017-08-30T17:36:59.256Z,72.05
2017-08-30T17:37:59.308Z,72.44
2017-08-30T17:39:52.335Z,72.11
2017-08-30T17:40:52.384Z,72.02
2017-08-30T17:42:45.389Z,72.11
2017-08-30T17:43:45.460Z,72.30
2017-08-30T17:45:38.487Z,71.82
2017-08-30T17:46:38.536Z,72.40
2017-08-30T17:48:31.545Z,72.21
2017-08-30T17:49:31.612Z,72.40
2017-08-30T17:51:24.662Z,72.30
2017-08-30T17:52:24.685Z,72.79
2017-08-30T17:54:17.687Z,72.89
2017-08-30T17:55:17.787Z,73.47
2017-08-30T17:57:10.786Z,73.57
2017-08-30T17:58:10.833Z,73.57
2017-08-30T18:00:03.898Z,74.79
2017-08-30T18:01:03.945Z,74.30
2017-08-30T18:02:56.953Z,75.37
2017-08-30T18:03:57.025Z,75.56
2017-08-30T18:05:50.049Z,75.85
2017-08-30T18:06:50.105Z,76.04
2017-08-30T18:08:43.106Z,75.75
2017-08-30T18:09:43.174Z,75.27
2017-08-30T18:11:36.201Z,75.65
2017-08-30T18:12:36.248Z,75.46
2017-08-30T18:14:29.257Z,76.43
2017-08-30T18:15:29.328Z,75.65
2017-08-30T18:17:22.354Z,76.39
2017-08-30T18:18:22.403Z,75.33
2017-08-30T18:20:15.434Z,76.53
2017-08-30T18:21:15.477Z,76.68
2017-08-30T18:23:08.481Z,77.17
2017-08-30T18:24:08.550Z,77.11
2017-08-30T18:26:01.576Z,76.78
2017-08-30T18:27:01.627Z,76.97
2017-08-30T18:28:54.629Z,77.36
2017-08-30T18:29:54.701Z,77.07
2017-08-30T18:31:47.724Z,77.75
2017-08-30T18:32:47.776Z,77.75
2017-08-30T18:34:41.284Z,78.23